createdAt,value
2024-01-15T14:34:29.835Z,93435.00
2024-01-15T14:35:29.666Z,93434.00
2024-01-15T14:36:29.711Z,93435.00
2024-01-15T14:37:29.697Z,93433.00
2024-01-15T14:38:29.695Z,93433.00
2024-01-15T14:39:29.791Z,93435.00
2024-01-15T14:40:29.691Z,93434.00
2024-01-15T14:41:29.716Z,93434.00
2024-01-15T14:42:29.731Z,93435.00
2024-01-15T14:43:29.729Z,93438.00
2024-01-15T14:44:29.709Z,93436.00
2024-01-15T14:45:29.765Z,93436.00
2024-01-15T14:46:29.799Z,93438.00
2024-01-15T14:47:29.769Z,93439.00
2024-01-15T14:48:29.839Z,93439.00
2024-01-15T14:49:29.792Z,93440.00
2024-01-15T14:50:29.671Z,93441.00
2024-01-15T14:51:29.742Z,93443.00
2024-01-15T14:52:29.708Z,93448.00
2024-01-15T14:53:29.795Z,93449.00
2024-01-15T14:54:29.760Z,93451.00
2024-01-15T14:55:29.796Z,93446.00
2024-01-15T14:56:29.834Z,93448.00
2024-01-15T14:57:29.885Z,93448.00
2024-01-15T14:58:29.946Z,93450.00
2024-01-15T14:59:30.026Z,93455.00
2024-01-15T15:00:30.118Z,93452.00
2024-01-15T15:01:30.170Z,93455.00
2024-01-15T15:02:31.597Z,93451.00
2024-01-15T15:03:30.175Z,93448.00
2024-01-15T15:04:30.203Z,93446.00
2024-01-15T15:05:30.172Z,93445.00
2024-01-15T15:06:30.309Z,93444.00
2024-01-15T15:07:30.435Z,93446.00
2024-01-15T15:08:30.160Z,93448.00
2024-01-15T15:09:30.147Z,93450.00
2024-01-15T15:10:30.133Z,93453.00
2024-01-15T15:11:30.090Z,93455.00
2024-01-15T15:12:30.200Z,93455.00
2024-01-15T15:13:38.161Z,93458.00
2024-01-15T15:14:31.148Z,93460.00
2024-01-15T15:15:30.161Z,93464.00
2024-01-15T15:16:30.143Z,93466.00
2024-01-15T15:17:30.174Z,93471.00
2024-01-15T15:18:30.219Z,93470.00
2024-01-15T15:19:30.333Z,93471.00
2024-01-15T15:20:30.231Z,93474.00
2024-01-15T15:21:30.239Z,93476.00
2024-01-15T15:22:30.278Z,93479.00
2024-01-15T15:23:30.291Z,93478.00
2024-01-15T15:24:30.329Z,93475.00
2024-01-15T15:25:30.381Z,93476.00
2024-01-15T15:26:30.526Z,93477.00
2024-01-15T15:27:30.468Z,93480.00
2024-01-15T15:28:30.604Z,93484.00
2024-01-15T15:29:30.608Z,93485.00
2024-01-15T15:30:30.604Z,93487.00
2024-01-15T15:31:30.541Z,93488.00
2024-01-15T15:32:30.702Z,93488.00
2024-01-15T15:33:30.804Z,93491.00
2024-01-15T15:34:30.735Z,93493.00
2024-01-15T15:35:30.673Z,93495.00
2024-01-15T15:36:30.708Z,93498.00
2024-01-15T15:37:30.720Z,93502.00
2024-01-15T15:38:30.792Z,93508.00
2024-01-15T15:39:30.840Z,93507.00
2024-01-15T15:40:30.926Z,93512.00
2024-01-15T15:41:30.924Z,93513.00
2024-01-15T15:42:30.950Z,93512.00
2024-01-15T15:43:31.179Z,93508.00
2024-01-15T15:44:31.045Z,93508.00
2024-01-15T15:45:31.185Z,93512.00
2024-01-15T15:46:31.156Z,93519.00
2024-01-15T15:47:31.529Z,93523.00
2024-01-15T15:48:31.403Z,93525.00
2024-01-15T15:49:31.400Z,93525.00
2024-01-15T15:50:34.369Z,93522.00
2024-01-15T15:51:31.391Z,93521.00
2024-01-15T15:52:31.371Z,93524.00
2024-01-15T15:53:31.387Z,93528.00
2024-01-15T15:54:31.431Z,93531.00
2024-01-15T15:55:31.346Z,93535.00
2024-01-15T15:56:31.349Z,93537.00
2024-01-15T15:57:31.384Z,93534.00
2024-01-15T15:58:31.377Z,93534.00
2024-01-15T15:59:31.379Z,93532.00
2024-01-15T16:00:31.423Z,93532.00
2024-01-15T16:01:31.419Z,93533.00
2024-01-15T16:02:32.598Z,93538.00
2024-01-15T16:03:31.416Z,93540.00
2024-01-15T16:04:31.553Z,93541.00
2024-01-15T16:05:38.125Z,93544.00
2024-01-15T16:06:32.534Z,93551.00
2024-01-15T16:07:31.454Z,93557.00
2024-01-15T16:08:31.432Z,93560.00
2024-01-15T16:09:31.436Z,93562.00
2024-01-15T16:10:31.380Z,93562.00
2024-01-15T16:11:31.367Z,93563.00
2024-01-15T16:12:31.453Z,93563.00
2024-01-15T16:13:31.392Z,93560.00
2024-01-15T16:14:31.433Z,93559.00
2024-01-15T16:15:31.418Z,93565.00
2024-01-15T16:23:11.431Z,93566.00
2024-01-15T16:23:16.144Z,93570.00
2024-01-15T16:23:21.183Z,93569.00
2024-01-15T16:23:25.683Z,93571.00
2024-01-15T16:23:31.033Z,93573.00
2024-01-15T16:23:36.998Z,93574.00
2024-01-15T16:23:42.325Z,93573.00
2024-01-15T16:24:06.007Z,93573.00
2024-01-15T16:24:40.821Z,93574.00
2024-01-15T16:25:32.618Z,93580.00
2024-01-15T16:26:31.714Z,93584.00
2024-01-15T16:27:31.501Z,93579.00
2024-01-15T16:28:31.578Z,93582.00
2024-01-15T16:29:31.445Z,93584.00
2024-01-15T16:30:37.456Z,93586.00
2024-01-15T16:31:32.520Z,93580.00
2024-01-15T16:32:31.556Z,93578.00
2024-01-15T16:33:31.523Z,93574.00
2024-01-15T16:34:31.477Z,93577.00
2024-01-15T16:35:31.599Z,93578.00
2024-01-15T16:36:31.572Z,93581.00
2024-01-15T16:37:31.465Z,93586.00
2024-01-15T16:38:31.528Z,93588.00
2024-01-15T16:39:31.488Z,93593.00
2024-01-15T16:40:31.773Z,93599.00
2024-01-15T16:41:31.489Z,93598.00
2024-01-15T16:42:31.451Z,93600.00
2024-01-15T16:43:31.511Z,93600.00
2024-01-15T16:44:31.565Z,93597.00
2024-01-15T16:45:31.509Z,93597.00
2024-01-15T16:46:31.582Z,93600.00
2024-01-15T16:47:31.689Z,93599.00
2024-01-15T16:48:31.808Z,93600.00
2024-01-15T16:49:31.742Z,93601.00
2024-01-15T16:50:31.852Z,93602.00
2024-01-15T16:51:31.847Z,93604.00
2024-01-15T16:52:31.925Z,93611.00
2024-01-15T16:53:32.005Z,93611.00
2024-01-15T16:54:31.951Z,93612.00
2024-01-15T16:55:32.022Z,93613.00
2024-01-15T16:56:32.089Z,93621.00
2024-01-15T16:57:32.057Z,93625.00
2024-01-15T16:58:32.100Z,93625.00
2024-01-15T16:59:32.132Z,93622.00
2024-01-15T17:00:32.132Z,93622.00
2024-01-15T17:01:32.180Z,93621.00
2024-01-15T17:02:32.186Z,93624.00
2024-01-15T17:03:32.287Z,93627.00
2024-01-15T17:04:32.292Z,93630.00
2024-01-15T17:05:32.293Z,93635.00
2024-01-15T17:06:32.321Z,93630.00
2024-01-15T17:07:32.370Z,93626.00
2024-01-15T17:08:32.537Z,93620.00
2024-01-15T17:09:32.466Z,93619.00
2024-01-15T17:10:32.541Z,93621.00
2024-01-15T17:11:32.608Z,93623.00
2024-01-15T17:12:32.618Z,93624.00
2024-01-15T17:13:32.666Z,93628.00
2024-01-15T17:14:32.817Z,93631.00
2024-01-15T17:15:32.738Z,93632.00
2024-01-15T17:16:32.734Z,93630.00
2024-01-15T17:17:33.058Z,93635.00
2024-01-15T17:18:32.833Z,93638.00
2024-01-15T17:19:32.826Z,93638.00
2024-01-15T17:20:32.955Z,93644.00
2024-01-15T17:21:32.848Z,93648.00
2024-01-15T17:22:32.861Z,93652.00
2024-01-15T17:23:32.992Z,93652.00
2024-01-15T17:24:32.959Z,93652.00
2024-01-15T17:25:32.999Z,93649.00
2024-01-15T17:26:33.068Z,93650.00
2024-01-15T17:27:33.057Z,93649.00
2024-01-15T17:28:33.118Z,93653.00
2024-01-15T17:29:33.190Z,93661.00
2024-01-15T17:30:33.173Z,93660.00
2024-01-15T17:31:33.170Z,93658.00
2024-01-15T17:32:33.445Z,93657.00
2024-01-15T17:33:33.382Z,93657.00
2024-01-15T17:34:33.472Z,93659.00
2024-01-15T17:35:33.461Z,93662.00
2024-01-15T17:36:33.424Z,93663.00
2024-01-15T17:37:33.477Z,93662.00
2024-01-15T17:38:33.599Z,93666.00
2024-01-15T17:39:33.550Z,93668.00
2024-01-15T17:40:33.606Z,93665.00
2024-01-15T17:41:33.820Z,93664.00
2024-01-15T17:42:33.681Z,93662.00
2024-01-15T17:43:33.750Z,93660.00
2024-01-15T17:44:33.821Z,93661.00
2024-01-15T17:45:33.859Z,93665.00
2024-01-15T17:46:34.009Z,93668.00
2024-01-15T17:47:34.025Z,93668.00
2024-01-15T17:48:34.083Z,93666.00
2024-01-15T17:49:34.029Z,93666.00
2024-01-15T17:50:34.240Z,93669.00
2024-01-15T17:51:34.213Z,93669.00
2024-01-15T17:52:34.150Z,93671.00
2024-01-15T17:53:34.256Z,93672.00
2024-01-15T17:54:37.113Z,93677.00
2024-01-15T17:55:34.233Z,93685.00
2024-01-15T17:56:34.272Z,93684.00
2024-01-15T17:57:34.223Z,93682.00
2024-01-15T17:58:34.316Z,93674.00
2024-01-15T17:59:34.322Z,93677.00
2024-01-15T18:00:34.237Z,93679.00
2024-01-15T18:01:34.259Z,93683.00
2024-01-15T18:02:34.267Z,93683.00
2024-01-15T18:03:35.054Z,93685.00
2024-01-15T18:04:34.230Z,93682.00
2024-01-15T18:05:34.473Z,93683.00
2024-01-15T18:06:34.315Z,93680.00
2024-01-15T18:07:34.236Z,93682.00
2024-01-15T18:08:34.414Z,93682.00
2024-01-15T18:09:34.240Z,93683.00
2024-01-15T18:10:34.607Z,93682.00
2024-01-15T18:11:34.255Z,93682.00
2024-01-15T18:12:34.279Z,93683.00
2024-01-15T18:13:34.284Z,93687.00
2024-01-15T18:14:34.324Z,93691.00
2024-01-15T18:15:34.241Z,93690.00
2024-01-15T18:16:35.108Z,93693.00
2024-01-15T18:17:34.434Z,93693.00
2024-01-15T18:18:34.432Z,93695.00
2024-01-15T18:19:34.252Z,93690.00
2024-01-15T18:20:34.358Z,93689.00
2024-01-15T18:21:34.308Z,93693.00
2024-01-15T18:22:34.257Z,93695.00
2024-01-15T18:23:34.383Z,93693.00
2024-01-15T18:24:34.304Z,93695.00
2024-01-15T18:25:34.303Z,93697.00
2024-01-15T18:26:34.360Z,93701.00
2024-01-15T18:27:34.306Z,93701.00
2024-01-15T18:28:34.389Z,93705.00
2024-01-15T18:29:34.340Z,93705.00
2024-01-15T18:30:34.797Z,93706.00
2024-01-15T18:31:34.361Z,93706.00
2024-01-15T18:32:34.325Z,93705.00
2024-01-15T18:33:34.510Z,93703.00
2024-01-15T18:34:34.557Z,93703.00
2024-01-15T18:35:34.333Z,93702.00
2024-01-15T18:36:34.282Z,93703.00
2024-01-15T18:37:34.329Z,93704.00
2024-01-15T18:38:34.411Z,93708.00
2024-01-15T18:39:34.311Z,93709.00
2024-01-15T18:40:34.346Z,93707.00
2024-01-15T18:41:34.368Z,93701.00
2024-01-15T18:42:34.306Z,93699.00
2024-01-15T18:43:34.351Z,93697.00
2024-01-15T18:44:34.399Z,93700.00
2024-01-15T18:45:34.386Z,93704.00
2024-01-15T18:46:34.424Z,93711.00
2024-01-15T18:47:34.561Z,93717.00
2024-01-15T18:48:34.631Z,93719.00
2024-01-15T18:49:34.606Z,93718.00
2024-01-15T18:50:34.691Z,93717.00
2024-01-15T18:51:34.671Z,93719.00
2024-01-15T18:52:34.724Z,93720.00
2024-01-15T18:53:34.814Z,93717.00
2024-01-15T18:54:34.793Z,93716.00
2024-01-15T18:55:35.981Z,93716.00
2024-01-15T18:56:35.006Z,93718.00
2024-01-15T18:57:35.583Z,93720.00
2024-01-15T18:58:34.991Z,93722.00
2024-01-15T18:59:35.090Z,93725.00
2024-01-15T19:00:35.108Z,93728.00
2024-01-15T19:01:35.102Z,93731.00
2024-01-15T19:02:35.220Z,93730.00
2024-01-15T19:03:35.242Z,93729.00
2024-01-15T19:04:35.277Z,93733.00
2024-01-15T19:05:35.297Z,93734.00
2024-01-15T19:06:35.303Z,93736.00
2024-01-15T19:07:35.280Z,93737.00
2024-01-15T19:08:35.449Z,93736.00
2024-01-15T19:09:35.356Z,93732.00
2024-01-15T19:10:35.399Z,93733.00
2024-01-15T19:11:35.486Z,93736.00
2024-01-15T19:12:35.503Z,93741.00
2024-01-15T19:13:35.565Z,93744.00
2024-01-15T19:14:35.577Z,93747.00
2024-01-15T19:15:35.595Z,93751.00
2024-01-15T19:16:35.642Z,93752.00
2024-01-15T19:17:35.792Z,93754.00
2024-01-15T19:18:35.864Z,93746.00
2024-01-15T19:19:35.842Z,93748.00
2024-01-15T19:20:35.830Z,93750.00
2024-01-15T19:21:35.810Z,93752.00
2024-01-15T19:22:35.916Z,93753.00
2024-01-15T19:23:36.020Z,93752.00
2024-01-15T19:24:35.877Z,93753.00
2024-01-15T19:25:36.041Z,93756.00
2024-01-15T19:26:35.956Z,93759.00
2024-01-15T19:27:35.961Z,93761.00
2024-01-15T19:28:35.962Z,93763.00
2024-01-15T19:29:36.012Z,93764.00
2024-01-15T19:30:36.074Z,93763.00
2024-01-15T19:31:36.068Z,93757.00
2024-01-15T19:32:36.124Z,93764.00
2024-01-15T19:33:36.876Z,93769.00
2024-01-15T19:34:36.215Z,93771.00
2024-01-15T19:35:36.286Z,93772.00
2024-01-15T19:36:36.265Z,93769.00
2024-01-15T19:37:36.292Z,93765.00
2024-01-15T19:38:36.480Z,93762.00
2024-01-15T19:39:36.382Z,93759.00
2024-01-15T19:40:36.371Z,93761.00
2024-01-15T19:41:36.480Z,93763.00
2024-01-15T19:42:36.448Z,93765.00
2024-01-15T19:43:36.527Z,93770.00
2024-01-15T19:44:36.628Z,93771.00
2024-01-15T19:45:36.594Z,93769.00
2024-01-15T19:46:36.587Z,93771.00
2024-01-15T19:47:36.737Z,93775.00
2024-01-15T19:48:36.704Z,93777.00
2024-01-15T19:49:36.805Z,93778.00
2024-01-15T19:50:36.794Z,93782.00
2024-01-15T19:51:36.758Z,93785.00
2024-01-15T19:52:36.796Z,93787.00
2024-01-15T19:53:36.928Z,93791.00
2024-01-15T19:54:36.954Z,93791.00
2024-01-15T19:55:36.915Z,93793.00
2024-01-15T19:56:37.200Z,93793.00
2024-01-15T19:57:37.094Z,93794.00
2024-01-15T19:58:37.139Z,93795.00
2024-01-15T19:59:37.204Z,93798.00
2024-01-15T20:00:37.201Z,93804.00
2024-01-15T20:01:37.170Z,93806.00
2024-01-15T20:02:37.330Z,93805.00
2024-01-15T20:03:37.381Z,93803.00
2024-01-15T20:04:37.345Z,93802.00
2024-01-15T20:05:37.482Z,93800.00
2024-01-15T20:06:37.478Z,93804.00
2024-01-15T20:07:37.514Z,93806.00
2024-01-15T20:08:37.566Z,93806.00
2024-01-15T20:09:37.534Z,93805.00
2024-01-15T20:10:37.617Z,93810.00
2024-01-15T20:11:37.846Z,93809.00
2024-01-15T20:12:37.651Z,93811.00
2024-01-15T20:13:37.762Z,93817.00
2024-01-15T20:14:37.818Z,93820.00
2024-01-15T20:15:37.803Z,93822.00
2024-01-15T20:16:37.883Z,93820.00
2024-01-15T20:17:37.976Z,93820.00
2024-01-15T20:18:38.087Z,93821.00
2024-01-15T20:19:38.141Z,93819.00
2024-01-15T20:20:38.127Z,93827.00
2024-01-15T20:21:38.144Z,93824.00
2024-01-15T20:22:38.214Z,93829.00
2024-01-15T20:23:46.489Z,93833.00
2024-01-15T20:24:39.249Z,93835.00
2024-01-15T20:25:38.246Z,93839.00
2024-01-15T20:26:38.370Z,93841.00
2024-01-15T20:27:38.243Z,93837.00
2024-01-15T20:28:38.395Z,93834.00
2024-01-15T20:29:38.272Z,93830.00
2024-01-15T20:30:38.273Z,93827.00
2024-01-15T20:31:38.271Z,93827.00
2024-01-15T20:32:38.760Z,93829.00
2024-01-15T20:33:38.354Z,93829.00
2024-01-15T20:34:38.239Z,93826.00
2024-01-15T20:35:38.382Z,93832.00
2024-01-15T20:36:38.408Z,93841.00
2024-01-15T20:37:38.414Z,93847.00
2024-01-15T20:38:38.631Z,93851.00
2024-01-15T20:39:38.569Z,93851.00
2024-01-15T20:40:38.661Z,93851.00
2024-01-15T20:41:38.664Z,93850.00
2024-01-15T20:42:38.690Z,93848.00
2024-01-15T20:43:38.783Z,93847.00
2024-01-15T20:44:38.846Z,93847.00
2024-01-15T20:45:38.797Z,93842.00
2024-01-15T20:46:38.889Z,93841.00
2024-01-15T20:47:38.963Z,93842.00
2024-01-15T20:48:39.002Z,93845.00
2024-01-15T20:49:39.021Z,93850.00
2024-01-15T20:50:39.080Z,93854.00
2024-01-15T20:51:39.043Z,93858.00
2024-01-15T20:52:39.107Z,93865.00
2024-01-15T20:53:39.241Z,93869.00
2024-01-15T20:54:40.293Z,93872.00
2024-01-15T20:55:39.279Z,93873.00
2024-01-15T20:56:39.385Z,93871.00
2024-01-15T20:57:39.350Z,93870.00
2024-01-15T20:58:39.419Z,93869.00
2024-01-15T20:59:39.483Z,93867.00
2024-01-15T21:00:39.498Z,93867.00
2024-01-15T21:01:39.520Z,93867.00
2024-01-15T21:02:39.615Z,93869.00
2024-01-15T21:03:39.632Z,93876.00
2024-01-15T21:04:39.641Z,93875.00
2024-01-15T21:05:39.710Z,93878.00
2024-01-15T21:06:39.771Z,93881.00
2024-01-15T21:07:39.728Z,93883.00
2024-01-15T21:08:39.822Z,93881.00
2024-01-15T21:09:39.766Z,93882.00
2024-01-15T21:10:39.819Z,93884.00
2024-01-15T21:11:39.970Z,93886.00
2024-01-15T21:12:39.963Z,93887.00
2024-01-15T21:13:39.992Z,93891.00
2024-01-15T21:14:40.072Z,93896.00
2024-01-15T21:15:40.043Z,93896.00
2024-01-15T21:16:40.059Z,93899.00
2024-01-15T21:17:40.214Z,93894.00
2024-01-15T21:18:40.249Z,93891.00
2024-01-15T21:19:40.247Z,93893.00
2024-01-15T21:20:40.360Z,93897.00
2024-01-15T21:21:40.303Z,93898.00
2024-01-15T21:22:40.379Z,93905.00
2024-01-15T21:23:40.442Z,93906.00
2024-01-15T21:24:40.412Z,93903.00
2024-01-15T21:25:40.398Z,93902.00
2024-01-15T21:26:40.571Z,93903.00
2024-01-15T21:27:40.580Z,93905.00
2024-01-15T21:28:40.576Z,93911.00
2024-01-15T21:29:40.629Z,93913.00
2024-01-15T21:30:40.703Z,93911.00
2024-01-15T21:31:40.635Z,93913.00
2024-01-15T21:32:40.769Z,93914.00
2024-01-15T21:33:40.952Z,93917.00
2024-01-15T21:34:40.757Z,93921.00
2024-01-15T21:35:40.904Z,93927.00
2024-01-15T21:36:40.868Z,93929.00
2024-01-15T21:37:40.934Z,93929.00
2024-01-15T21:38:41.052Z,93926.00
